createdAt,value
2023-05-02T00:01:05.976Z,97332.31
2023-05-02T00:03:32.638Z,97334.84
2023-05-02T00:05:59.344Z,97331.19
2023-05-02T00:08:25.945Z,97338.78
2023-05-02T00:10:52.535Z,97331.19
2023-05-02T00:13:19.131Z,97333.38
2023-05-02T00:15:45.701Z,97334.19
2023-05-02T00:18:12.348Z,97333.38
2023-05-02T00:20:38.979Z,97327.00
2023-05-02T00:23:05.577Z,97322.75
2023-05-02T00:25:32.146Z,97324.91
2023-05-02T00:27:58.743Z,97320.88
2023-05-02T00:30:25.396Z,97317.75
2023-05-02T00:32:52.032Z,97313.81
2023-05-02T00:35:18.995Z,97318.53
2023-05-02T00:37:45.636Z,97312.44
2023-05-02T00:40:12.234Z,97308.72
2023-05-02T00:42:38.796Z,97313.91
2023-05-02T00:45:05.384Z,97313.91
2023-05-02T00:47:32.033Z,97309.91
2023-05-02T00:49:58.846Z,97310.31
2023-05-02T00:52:25.669Z,97311.72
2023-05-02T00:54:52.237Z,97309.53
2023-05-02T00:57:18.842Z,97310.41
2023-05-02T00:59:45.664Z,97317.13
2023-05-02T01:02:12.375Z,97307.06
2023-05-02T01:04:39.124Z,97312.72
2023-05-02T01:07:05.700Z,97304.19
2023-05-02T01:09:32.309Z,97310.09
2023-05-02T01:11:58.867Z,97305.69
2023-05-02T01:14:25.466Z,97305.69
2023-05-02T01:16:52.083Z,97297.59
2023-05-02T01:19:18.657Z,97296.94
2023-05-02T01:21:45.265Z,97302.09
2023-05-02T01:24:12.680Z,97300.91
2023-05-02T01:26:39.308Z,97299.53
2023-05-02T01:29:05.874Z,97296.50
2023-05-02T01:31:32.519Z,97297.25
2023-05-02T01:33:59.104Z,97294.94
2023-05-02T01:36:25.730Z,97292.75
2023-05-02T01:38:52.292Z,97286.16
2023-05-02T01:41:18.878Z,97292.47
2023-05-02T01:43:45.447Z,97289.59
2023-05-02T01:46:12.207Z,97293.06
2023-05-02T01:48:38.793Z,97291.81
2023-05-02T01:51:05.382Z,97284.00
2023-05-02T01:53:32.150Z,97289.22
2023-05-02T01:55:58.781Z,97284.38
2023-05-02T01:58:25.373Z,97283.22
2023-05-02T02:00:52.109Z,97283.34
2023-05-02T02:03:18.787Z,97283.78
2023-05-02T02:05:45.392Z,97274.75
2023-05-02T02:08:11.967Z,97274.19
2023-05-02T02:10:38.576Z,97276.72
2023-05-02T02:13:05.164Z,97277.69
2023-05-02T02:15:31.744Z,97272.41
2023-05-02T02:17:58.489Z,97276.53
2023-05-02T02:20:25.158Z,97275.03
2023-05-02T02:22:51.829Z,97277.31
2023-05-02T02:25:18.392Z,97271.59
2023-05-02T02:27:45.100Z,97273.06
2023-05-02T02:30:12.054Z,97273.97
2023-05-02T02:32:38.866Z,97273.16
2023-05-02T02:35:05.478Z,97269.25
2023-05-02T02:37:32.099Z,97271.59
2023-05-02T02:39:58.873Z,97276.09
2023-05-02T02:42:25.658Z,97276.34
2023-05-02T02:44:56.641Z,97277.13
2023-05-02T02:47:23.333Z,97273.22
2023-05-02T02:49:49.933Z,97276.31
2023-05-02T02:52:16.499Z,97273.81
2023-05-02T02:54:43.224Z,97273.91
2023-05-02T02:57:09.867Z,97281.16
2023-05-02T02:59:36.465Z,97277.31
2023-05-02T03:02:03.198Z,97282.19
2023-05-02T03:04:29.897Z,97279.28
2023-05-02T03:06:56.770Z,97280.22
2023-05-02T03:09:23.403Z,97278.66
2023-05-02T03:11:50.322Z,97275.19
2023-05-02T03:14:16.920Z,97283.66
2023-05-02T03:16:43.635Z,97280.81
2023-05-02T03:19:10.261Z,97277.56
2023-05-02T03:21:36.858Z,97291.41
2023-05-02T03:24:03.490Z,97288.69
2023-05-02T03:26:30.483Z,97289.28
2023-05-02T03:28:57.092Z,97289.97
2023-05-02T03:31:26.205Z,97291.94
2023-05-02T03:33:53.845Z,97296.06
2023-05-02T03:36:20.456Z,97296.50
2023-05-02T03:38:47.190Z,97298.72
2023-05-02T03:41:13.781Z,97298.53
2023-05-02T03:43:40.379Z,97301.53
2023-05-02T03:46:07.017Z,97301.16
2023-05-02T03:48:33.597Z,97302.09
2023-05-02T03:51:00.148Z,97303.91
2023-05-02T03:53:26.852Z,97304.78
2023-05-02T03:55:53.427Z,97308.03
2023-05-02T03:58:19.996Z,97307.03
2023-05-02T04:00:46.622Z,97310.31
2023-05-02T04:03:13.227Z,97312.19
2023-05-02T04:05:39.905Z,97311.47
2023-05-02T04:08:06.467Z,97307.91
2023-05-02T04:10:33.055Z,97312.59
2023-05-02T04:12:59.722Z,97316.06
2023-05-02T04:15:26.375Z,97320.50
2023-05-02T04:17:53.122Z,97317.94
2023-05-02T04:20:19.727Z,97317.00
2023-05-02T04:22:46.277Z,97321.06
2023-05-02T04:25:12.846Z,97327.28
2023-05-02T04:27:39.647Z,97326.94
2023-05-02T04:30:06.210Z,97321.66
2023-05-02T04:32:32.886Z,97323.78
2023-05-02T04:34:59.499Z,97323.78
2023-05-02T04:37:26.082Z,97325.72
2023-05-02T04:39:52.680Z,97330.56
2023-05-02T04:42:19.240Z,97331.44
2023-05-02T04:44:45.985Z,97329.91
2023-05-02T04:47:13.620Z,97332.41
2023-05-02T04:49:40.223Z,97333.25
2023-05-02T04:52:06.782Z,97342.25
2023-05-02T04:54:33.362Z,97343.06
2023-05-02T04:56:59.998Z,97336.34
2023-05-02T04:59:26.640Z,97341.91
2023-05-02T05:01:53.282Z,97338.44
2023-05-02T05:04:20.029Z,97356.13
2023-05-02T05:06:46.774Z,97355.50
2023-05-02T05:09:13.353Z,97359.13
2023-05-02T05:11:39.979Z,97358.78
2023-05-02T05:14:06.588Z,97357.53
2023-05-02T05:16:33.444Z,97363.06
2023-05-02T05:19:00.141Z,97362.63
2023-05-02T05:21:26.723Z,97361.19
2023-05-02T05:23:53.336Z,97360.56
2023-05-02T05:26:19.900Z,97355.97
2023-05-02T05:28:46.495Z,97363.16
2023-05-02T05:31:15.213Z,97363.19
2023-05-02T05:33:43.323Z,97364.59
2023-05-02T05:36:09.950Z,97373.88
2023-05-02T05:38:36.553Z,97372.69
2023-05-02T05:41:03.183Z,97376.91
2023-05-02T05:43:29.779Z,97378.91
2023-05-02T05:45:56.367Z,97383.56
2023-05-02T05:48:23.028Z,97390.63
2023-05-02T05:50:49.738Z,97392.88
2023-05-02T05:53:16.387Z,97389.47
2023-05-02T05:55:43.342Z,97389.81
2023-05-02T05:58:09.985Z,97387.47
2023-05-02T06:00:36.598Z,97396.16
2023-05-02T06:03:03.312Z,97391.63
2023-05-02T06:05:30.244Z,97393.06
2023-05-02T06:07:56.869Z,97404.22
2023-05-02T06:10:23.968Z,97403.75
2023-05-02T06:12:50.602Z,97414.41
2023-05-02T06:15:17.186Z,97410.09
2023-05-02T06:17:43.843Z,97417.66
2023-05-02T06:20:10.457Z,97427.41
2023-05-02T06:22:37.065Z,97432.03
2023-05-02T06:25:03.682Z,97433.94
2023-05-02T06:27:33.683Z,97440.03
2023-05-02T06:30:00.798Z,97440.16
2023-05-02T06:32:27.950Z,97439.94
2023-05-02T06:34:54.565Z,97434.13
2023-05-02T06:37:21.364Z,97438.09
2023-05-02T06:39:47.969Z,97437.50
2023-05-02T06:42:14.558Z,97440.69
2023-05-02T06:44:41.194Z,97445.56
2023-05-02T06:47:07.912Z,97444.66
2023-05-02T06:49:34.544Z,97441.63
2023-05-02T06:52:01.149Z,97437.81
2023-05-02T06:54:28.817Z,97440.81
2023-05-02T06:56:55.440Z,97456.06
2023-05-02T06:59:22.025Z,97457.88
2023-05-02T07:01:48.636Z,97454.47
2023-05-02T07:04:15.273Z,97452.22
2023-05-02T07:06:41.922Z,97444.75
2023-05-02T07:09:08.563Z,97434.19
2023-05-02T07:11:35.128Z,97441.50
2023-05-02T07:14:01.833Z,97440.38
2023-05-02T07:16:28.686Z,97437.19
2023-05-02T07:18:55.516Z,97442.50
2023-05-02T07:21:22.102Z,97437.03
2023-05-02T07:23:48.693Z,97438.69
2023-05-02T07:26:15.294Z,97437.84
2023-05-02T07:28:41.863Z,97436.41
2023-05-02T07:31:08.460Z,97436.00
2023-05-02T07:33:35.040Z,97439.44
2023-05-02T07:36:01.650Z,97443.13
2023-05-02T07:38:28.267Z,97439.13
2023-05-02T07:40:54.855Z,97451.38
2023-05-02T07:43:21.475Z,97453.84
2023-05-02T07:45:48.058Z,97457.69
2023-05-02T07:48:14.734Z,97456.59
2023-05-02T07:50:41.372Z,97454.97
2023-05-02T07:53:07.980Z,97462.38
2023-05-02T07:55:34.573Z,97460.75
2023-05-02T07:58:01.172Z,97465.91
2023-05-02T08:00:27.754Z,97461.41
2023-05-02T08:02:54.484Z,97461.06
2023-05-02T08:05:21.209Z,97459.59
2023-05-02T08:07:47.794Z,97460.88
2023-05-02T08:10:14.365Z,97466.53
2023-05-02T08:12:40.982Z,97464.78
2023-05-02T08:15:07.579Z,97464.69
2023-05-02T08:17:34.331Z,97467.84
2023-05-02T08:20:04.030Z,97478.34
2023-05-02T08:22:30.601Z,97481.22
2023-05-02T08:24:57.206Z,97472.91
2023-05-02T08:27:23.762Z,97474.50
2023-05-02T08:29:50.347Z,97481.94
2023-05-02T08:32:17.141Z,97480.53
2023-05-02T08:34:43.777Z,97471.16
2023-05-02T08:37:10.432Z,97480.97
2023-05-02T08:39:37.009Z,97473.44
2023-05-02T08:42:03.602Z,97477.97
2023-05-02T08:44:30.205Z,97484.28
2023-05-02T08:46:56.934Z,97479.41
2023-05-02T08:49:23.730Z,97483.09
2023-05-02T08:51:50.479Z,97483.50
2023-05-02T08:54:17.275Z,97492.91
2023-05-02T08:56:43.870Z,97491.47
2023-05-02T08:59:10.463Z,97494.03
2023-05-02T09:01:37.088Z,97482.16
2023-05-02T09:04:03.823Z,97483.31
2023-05-02T09:06:30.470Z,97484.66
2023-05-02T09:08:57.117Z,97484.22
2023-05-02T09:11:23.730Z,97485.63
2023-05-02T09:13:50.345Z,97485.13
2023-05-02T09:16:16.966Z,97487.06
2023-05-02T09:18:43.574Z,97483.09
2023-05-02T09:21:12.582Z,97493.28
2023-05-02T09:23:39.495Z,97494.13
2023-05-02T09:26:06.123Z,97480.91
2023-05-02T09:28:32.706Z,97496.22
2023-05-02T09:30:59.337Z,97498.72
2023-05-02T09:33:26.060Z,97504.44
2023-05-02T09:35:52.645Z,97497.91
2023-05-02T09:38:19.211Z,97496.63
2023-05-02T09:40:45.799Z,97488.97
2023-05-02T09:43:12.390Z,97493.56
2023-05-02T09:45:38.957Z,97486.38
2023-05-02T09:48:05.618Z,97488.56
2023-05-02T09:50:32.930Z,97491.03
2023-05-02T09:52:59.748Z,97488.94
2023-05-02T09:55:26.330Z,97494.69
2023-05-02T09:57:52.908Z,97494.28
2023-05-02T10:00:19.532Z,97483.81
2023-05-02T10:02:46.187Z,97490.81
2023-05-02T10:05:12.771Z,97491.56
2023-05-02T10:07:39.360Z,97490.22
2023-05-02T10:10:05.950Z,97486.63
2023-05-02T10:12:32.574Z,97477.00
2023-05-02T10:14:59.404Z,97485.84
2023-05-02T10:17:26.340Z,97476.09
2023-05-02T10:19:52.957Z,97482.53
2023-05-02T10:22:19.573Z,97479.22
2023-05-02T10:24:46.256Z,97487.28
2023-05-02T10:27:12.863Z,97490.09
2023-05-02T10:29:39.485Z,97481.41
2023-05-02T10:32:06.248Z,97491.97
2023-05-02T10:34:33.126Z,97478.75
2023-05-02T10:36:59.789Z,97480.56
2023-05-02T10:39:26.483Z,97480.09
2023-05-02T10:41:53.076Z,97482.19
2023-05-02T10:44:19.727Z,97481.22
2023-05-02T10:46:46.377Z,97485.25
2023-05-02T10:49:13.022Z,97491.22
2023-05-02T10:51:39.666Z,97485.66
2023-05-02T10:54:06.278Z,97494.50
2023-05-02T10:56:32.852Z,97489.06
2023-05-02T10:58:59.433Z,97488.31
2023-05-02T11:01:26.074Z,97490.19
2023-05-02T11:03:52.816Z,97495.28
2023-05-02T11:06:19.541Z,97491.44
2023-05-02T11:08:46.241Z,97495.94
2023-05-02T11:11:12.797Z,97487.88
2023-05-02T11:13:39.356Z,97495.41
2023-05-02T11:16:06.173Z,97493.00
2023-05-02T11:18:32.836Z,97497.19
2023-05-02T11:20:59.449Z,97495.53
2023-05-02T11:23:26.270Z,97497.81
2023-05-02T11:25:52.982Z,97498.09
2023-05-02T11:28:19.983Z,97496.03
2023-05-02T11:30:46.570Z,97501.94
2023-05-02T11:33:13.200Z,97500.13
2023-05-02T11:35:39.823Z,97499.66
2023-05-02T11:38:06.469Z,97504.53
2023-05-02T11:40:34.037Z,97498.34
2023-05-02T11:43:00.635Z,97507.84
2023-05-02T11:45:27.195Z,97511.50
2023-05-02T11:47:53.815Z,97518.44
2023-05-02T11:50:20.425Z,97517.06
2023-05-02T11:52:47.174Z,97519.56
2023-05-02T11:55:13.738Z,97518.44
2023-05-02T11:57:40.312Z,97516.41
2023-05-02T12:00:06.992Z,97517.69
2023-05-02T12:02:33.690Z,97516.50
2023-05-02T12:05:00.448Z,97515.53
2023-05-02T12:07:27.298Z,97517.47
2023-05-02T12:09:53.918Z,97522.09
2023-05-02T12:12:20.579Z,97526.63
2023-05-02T12:14:47.184Z,97526.53
2023-05-02T12:17:13.739Z,97525.31
2023-05-02T12:19:40.546Z,97533.78
2023-05-02T12:22:07.107Z,97531.88
2023-05-02T12:24:33.614Z,97525.56
2023-05-02T12:27:00.219Z,97534.81
2023-05-02T12:29:26.783Z,97535.91
2023-05-02T12:31:53.428Z,97533.97
2023-05-02T12:34:20.080Z,97536.97
2023-05-02T12:36:46.674Z,97534.53
2023-05-02T12:39:13.241Z,97546.25
2023-05-02T12:41:39.830Z,97552.25
2023-05-02T12:44:06.423Z,97546.38
2023-05-02T12:46:33.233Z,97553.19
2023-05-02T12:48:59.908Z,97563.19
2023-05-02T12:51:26.515Z,97570.94
2023-05-02T12:53:53.147Z,97572.41
2023-05-02T12:56:19.727Z,97571.69
2023-05-02T12:58:46.462Z,97579.25
2023-05-02T13:01:13.630Z,97576.94
2023-05-02T13:03:40.303Z,97585.00
2023-05-02T13:06:06.934Z,97590.22
2023-05-02T13:08:33.615Z,97586.91
2023-05-02T13:11:00.205Z,97591.28
2023-05-02T13:13:26.958Z,97590.25
2023-05-02T13:15:53.538Z,97585.41
2023-05-02T13:18:20.156Z,97590.72
2023-05-02T13:20:46.728Z,97588.84
2023-05-02T13:23:13.304Z,97586.91
2023-05-02T13:25:39.999Z,97591.19
2023-05-02T13:28:06.582Z,97594.88
2023-05-02T13:30:33.331Z,97581.69
2023-05-02T13:33:00.069Z,97589.56
2023-05-02T13:35:26.714Z,97584.22
2023-05-02T13:37:54.314Z,97586.69
2023-05-02T13:40:21.009Z,97581.88
2023-05-02T13:42:47.614Z,97580.19
2023-05-02T13:45:14.223Z,97581.69
2023-05-02T13:47:41.534Z,97592.31
2023-05-02T13:50:08.345Z,97590.03
2023-05-02T13:52:34.987Z,97590.81
2023-05-02T13:55:01.586Z,97588.75
2023-05-02T13:57:28.208Z,97588.75
2023-05-02T13:59:54.770Z,97588.75
2023-05-02T14:02:21.397Z,97580.38
2023-05-02T14:04:47.976Z,97588.22
2023-05-02T14:07:14.555Z,97590.16
2023-05-02T14:09:41.344Z,97590.66
2023-05-02T14:12:08.021Z,97587.25
2023-05-02T14:14:34.713Z,97598.31
2023-05-02T14:17:01.339Z,97596.69
2023-05-02T14:19:27.947Z,97604.22
2023-05-02T14:21:54.530Z,97590.19
2023-05-02T14:24:21.125Z,97601.75
2023-05-02T14:26:47.702Z,97598.81
2023-05-02T14:29:14.283Z,97610.22
2023-05-02T14:31:40.908Z,97607.53
2023-05-02T14:34:09.036Z,97595.09
2023-05-02T14:36:35.848Z,97609.38
2023-05-02T14:39:02.461Z,97598.91
2023-05-02T14:41:29.215Z,97597.59
2023-05-02T14:43:55.773Z,97603.16
2023-05-02T14:46:22.400Z,97596.06
2023-05-02T14:48:49.036Z,97600.03
2023-05-02T14:51:15.697Z,97602.97
2023-05-02T14:53:42.482Z,97601.81
2023-05-02T14:56:09.142Z,97603.63
2023-05-02T14:58:35.839Z,97605.19
2023-05-02T15:01:02.495Z,97604.06
2023-05-02T15:03:29.279Z,97596.94
2023-05-02T15:05:55.979Z,97604.06
2023-05-02T15:08:22.626Z,97599.97
2023-05-02T15:10:49.205Z,97603.13
2023-05-02T15:13:15.775Z,97602.19
2023-05-02T15:15:42.491Z,97595.97
2023-05-02T15:18:09.124Z,97602.22
2023-05-02T15:20:35.767Z,97606.41
2023-05-02T15:23:02.368Z,97602.38
2023-05-02T15:25:28.949Z,97598.03
2023-05-02T15:27:55.561Z,97599.44
2023-05-02T15:30:23.523Z,97602.19
2023-05-02T15:32:50.323Z,97599.28
2023-05-02T15:35:16.957Z,97594.25
2023-05-02T15:37:43.567Z,97592.56
2023-05-02T15:40:10.212Z,97611.63
2023-05-02T15:42:37.166Z,97605.38
2023-05-02T15:45:03.874Z,97603.00
2023-05-02T15:47:30.545Z,97613.34
2023-05-02T15:49:57.466Z,97611.94
2023-05-02T15:52:24.063Z,97614.31
2023-05-02T15:54:50.599Z,97616.22
2023-05-02T15:57:17.163Z,97620.19
2023-05-02T15:59:44.089Z,97620.41
2023-05-02T16:02:10.641Z,97611.19
2023-05-02T16:04:37.309Z,97614.03
2023-05-02T16:07:03.870Z,97618.47
2023-05-02T16:09:30.494Z,97619.97
2023-05-02T16:11:57.091Z,97633.59
2023-05-02T16:14:23.676Z,97627.09
2023-05-02T16:16:50.278Z,97620.16
2023-05-02T16:19:17.490Z,97621.31
2023-05-02T16:21:44.284Z,97629.00
2023-05-02T16:24:10.851Z,97609.97
2023-05-02T16:26:37.469Z,97623.22
2023-05-02T16:29:04.038Z,97617.53
2023-05-02T16:31:30.660Z,97618.63
2023-05-02T16:33:59.465Z,97618.81
2023-05-02T16:36:26.353Z,97617.13
2023-05-02T16:38:52.969Z,97617.22
2023-05-02T16:41:19.605Z,97622.16
2023-05-02T16:43:46.229Z,97618.69
2023-05-02T16:46:12.808Z,97619.75
2023-05-02T16:48:39.450Z,97617.84
2023-05-02T16:51:06.011Z,97618.75
2023-05-02T16:53:32.867Z,97618.44
2023-05-02T16:55:59.635Z,97621.69
2023-05-02T16:58:26.354Z,97619.56
2023-05-02T17:00:52.973Z,97618.78
2023-05-02T17:03:19.548Z,97619.16
2023-05-02T17:05:46.233Z,97619.78
2023-05-02T17:08:12.869Z,97616.22
2023-05-02T17:10:39.422Z,97626.13
2023-05-02T17:13:06.021Z,97631.50
2023-05-02T17:15:32.650Z,97632.88
2023-05-02T17:17:59.279Z,97631.72
2023-05-02T17:20:25.923Z,97649.00
2023-05-02T17:22:52.477Z,97660.31
2023-05-02T17:25:19.324Z,97665.19
2023-05-02T17:27:46.097Z,97666.56
2023-05-02T17:30:12.681Z,97667.59
2023-05-02T17:32:39.261Z,97677.66
2023-05-02T17:35:05.905Z,97668.31
2023-05-02T17:37:32.496Z,97677.78
2023-05-02T17:39:59.079Z,97681.75
2023-05-02T17:42:25.713Z,97685.84
2023-05-02T17:44:52.265Z,97683.97
2023-05-02T17:47:18.864Z,97699.53
2023-05-02T17:49:45.540Z,97691.84
2023-05-02T17:52:12.145Z,97693.84
2023-05-02T17:54:38.865Z,97703.97
2023-05-02T17:57:05.470Z,97714.47
2023-05-02T17:59:32.073Z,97699.50
2023-05-02T18:01:58.742Z,97703.94
2023-05-02T18:04:25.435Z,97707.31
2023-05-02T18:06:52.220Z,97707.59
2023-05-02T18:09:18.909Z,97701.94
2023-05-02T18:11:45.510Z,97708.25
2023-05-02T18:14:12.078Z,97713.41
2023-05-02T18:16:38.772Z,97719.16
2023-05-02T18:19:05.379Z,97715.97
2023-05-02T18:21:31.998Z,97720.81
2023-05-02T18:23:58.590Z,97721.91
2023-05-02T18:26:25.210Z,97725.78
2023-05-02T18:28:51.799Z,97719.00
2023-05-02T18:31:18.465Z,97729.09
2023-05-02T18:33:45.135Z,97738.00
2023-05-02T18:36:11.728Z,97737.31
2023-05-02T18:38:38.347Z,97748.59
2023-05-02T18:41:04.945Z,97741.09
2023-05-02T18:43:31.579Z,97754.25
2023-05-02T18:45:58.182Z,97743.81
2023-05-02T18:48:24.755Z,97756.66
2023-05-02T18:50:51.344Z,97754.75
2023-05-02T18:53:17.903Z,97754.28
2023-05-02T18:55:44.543Z,97756.56
2023-05-02T18:58:11.134Z,97755.34
2023-05-02T19:00:37.727Z,97760.53
2023-05-02T19:03:04.546Z,97765.06
2023-05-02T19:05:31.276Z,97760.97
2023-05-02T19:07:57.856Z,97762.28
2023-05-02T19:10:24.445Z,97770.75
2023-05-02T19:12:51.046Z,97771.31
2023-05-02T19:15:17.650Z,97771.75
2023-05-02T19:17:44.301Z,97771.91
2023-05-02T19:20:11.010Z,97770.59
2023-05-02T19:22:37.591Z,97781.38
2023-05-02T19:25:04.274Z,97784.50
2023-05-02T19:27:31.053Z,97788.50
2023-05-02T19:29:57.665Z,97792.63
2023-05-02T19:32:24.280Z,97792.03
2023-05-02T19:34:50.888Z,97792.69
2023-05-02T19:37:17.503Z,97800.34
2023-05-02T19:39:44.064Z,97801.56
2023-05-02T19:42:10.693Z,97799.44
2023-05-02T19:44:37.277Z,97806.06
2023-05-02T19:47:03.830Z,97799.69
2023-05-02T19:49:30.424Z,97801.19
2023-05-02T19:51:57.016Z,97808.88
2023-05-02T19:54:23.650Z,97814.94
2023-05-02T19:56:50.613Z,97806.22
2023-05-02T19:59:17.188Z,97809.38
2023-05-02T20:01:43.862Z,97808.94
2023-05-02T20:04:10.452Z,97821.13
2023-05-02T20:06:37.080Z,97814.81
2023-05-02T20:09:03.815Z,97813.84
2023-05-02T20:11:30.467Z,97813.06
2023-05-02T20:13:57.129Z,97823.97
2023-05-02T20:16:23.745Z,97822.94
2023-05-02T20:18:50.353Z,97820.13
2023-05-02T20:21:16.980Z,97824.28
2023-05-02T20:23:43.730Z,97821.88
2023-05-02T20:26:10.343Z,97818.66
2023-05-02T20:28:36.904Z,97829.03
2023-05-02T20:31:03.527Z,97830.56
2023-05-02T20:33:43.921Z,97828.66
2023-05-02T20:36:11.546Z,97832.09
2023-05-02T20:38:38.286Z,97820.81
2023-05-02T20:41:04.836Z,97821.75
2023-05-02T20:43:31.518Z,97829.22
2023-05-02T20:45:58.132Z,97836.59
2023-05-02T20:48:24.725Z,97831.28
2023-05-02T20:50:51.305Z,97831.28
2023-05-02T20:53:17.943Z,97833.16
2023-05-02T20:55:44.561Z,97831.19
2023-05-02T20:58:11.182Z,97822.78
2023-05-02T21:00:37.815Z,97839.06
2023-05-02T21:03:04.460Z,97840.19
2023-05-02T21:05:31.121Z,97839.88
2023-05-02T21:07:57.675Z,97856.34
2023-05-02T21:10:24.258Z,97851.44
2023-05-02T21:12:50.813Z,97848.06
2023-05-02T21:15:17.442Z,97848.47
2023-05-02T21:17:44.107Z,97850.50
2023-05-02T21:20:10.689Z,97847.63
2023-05-02T21:22:37.284Z,97854.53
2023-05-02T21:25:03.875Z,97853.88
2023-05-02T21:27:30.518Z,97852.88
2023-05-02T21:29:57.235Z,97850.22
2023-05-02T21:32:23.852Z,97857.50
2023-05-02T21:34:50.470Z,97861.84
2023-05-02T21:37:17.044Z,97851.56
2023-05-02T21:39:43.626Z,97859.16
2023-05-02T21:42:10.183Z,97861.00
2023-05-02T21:44:36.817Z,97865.88
2023-05-02T21:47:03.455Z,97864.84
2023-05-02T21:49:30.088Z,97858.81
2023-05-02T21:51:56.659Z,97861.06
2023-05-02T21:54:23.240Z,97859.16
2023-05-02T21:56:49.854Z,97861.78
2023-05-02T21:59:16.418Z,97864.22
2023-05-02T22:01:43.144Z,97857.66
2023-05-02T22:04:09.821Z,97862.97
2023-05-02T22:06:36.596Z,97864.69
2023-05-02T22:09:03.199Z,97866.13
2023-05-02T22:11:29.801Z,97871.66
2023-05-02T22:13:57.813Z,97874.09
2023-05-02T22:16:24.439Z,97867.34
2023-05-02T22:18:51.105Z,97870.03
2023-05-02T22:21:17.698Z,97869.19
2023-05-02T22:23:44.282Z,97870.00
2023-05-02T22:26:11.243Z,97869.41
2023-05-02T22:28:37.826Z,97869.41
2023-05-02T22:31:04.386Z,97869.91
2023-05-02T22:33:31.072Z,97876.38
2023-05-02T22:35:57.631Z,97869.41
2023-05-02T22:38:24.257Z,97871.63
2023-05-02T22:40:50.852Z,97874.91
2023-05-02T22:43:17.429Z,97875.94
2023-05-02T22:45:44.030Z,97876.34
2023-05-02T22:48:10.763Z,97874.53
2023-05-02T22:50:37.415Z,97876.59
2023-05-02T22:53:04.368Z,97879.06
2023-05-02T22:55:31.064Z,97882.50
2023-05-02T22:57:57.659Z,97881.03
2023-05-02T23:00:24.229Z,97883.94
2023-05-02T23:02:50.904Z,97874.69
2023-05-02T23:05:17.588Z,97874.53
2023-05-02T23:07:44.202Z,97878.38
2023-05-02T23:10:10.776Z,97866.19
2023-05-02T23:12:37.408Z,97866.78
2023-05-02T23:15:04.017Z,97868.41
2023-05-02T23:17:30.722Z,97871.66
2023-05-02T23:19:57.510Z,97873.03
2023-05-02T23:22:24.286Z,97877.97
2023-05-02T23:24:53.262Z,97868.38
2023-05-02T23:27:19.857Z,97871.06
2023-05-02T23:29:46.437Z,97871.84
2023-05-02T23:32:13.092Z,97874.69
2023-05-02T23:34:39.721Z,97871.06
2023-05-02T23:37:06.298Z,97863.94
2023-05-02T23:39:32.903Z,97864.72
2023-05-02T23:41:59.770Z,97864.06
2023-05-02T23:44:26.360Z,97857.91
2023-05-02T23:46:53.162Z,97865.09
2023-05-02T23:49:19.790Z,97860.00
2023-05-02T23:51:46.459Z,97864.31
2023-05-02T23:54:13.043Z,97861.63
2023-05-02T23:56:39.639Z,97861.88
2023-05-02T23:59:06.220Z,97852.13
